Alapuzha, India

6:52 PM IST on July 07, 2015 (GMT +0530)
Cochin International | | Change Station
CLOSE
Current Station
Airport
Location: Cochin International Airp,
Elevation: 26 ft
Nearby Weather Stations

Elev 26 ft 10.15 °N, 76.40 °E | Updated 22 minutes ago

Haze
Haze
82 °F
Feels Like 90 °F
N
6
Wind Variable Wind from WNW

Today
High -- | Low -- °F
--% Chance of Precip.
Yesterday
High -- | Low -- °F
Precip. -- in
6:09 AM 6:48 PM
Waning Gibbous, 65% visible
Pressure 29.77 in
Visibility 3.1 miles
Clouds Scattered Clouds 1500 ft
Scattered Clouds 9000 ft
Heat Index 90 °F
Dew Point 75 °F
Humidity 79%
Rainfall 0.00 in
Snow Depth Not available.
UV 0 out of 12
Pollen Not available.
Air Quality Not available.
Flu Activity Not available.
METAR VOCI 071300Z 30005KT 5000 HZ SCT015 SCT090 28/24 Q1008 NOSIG

More Conditions Fewer Conditions

Pressure 29.77 in
Visibility 3.1 miles
Clouds Scattered Clouds 1500 ft
Scattered Clouds 9000 ft
Heat Index 90 °F
Dew Point 75 °F
Humidity 79%
Rainfall 0.00 in
Snow Depth Not available.
UV 0 out of 12
Pollen Not available.
Air Quality Not available.
Flu Activity Not available.
METAR VOCI 071300Z 30005KT 5000 HZ SCT015 SCT090 28/24 Q1008 NOSIG

More Conditions Fewer Conditions

10-Day Weather Forecast

×

Almanac

Astronomy

Jul. 07, 2015 Rise Set
Actual Time
Civil Twilight
Nautical Twilight
Astronomical Twilight
Moon
Length of Visible Light
Length of Day
Tomorrow will be .
, % of the Moon is Illuminated

Today's Extremes

Country Highs Country Lows

Community

WunderPhotos

Upload Photos

1,835,792 photos uploaded!

WunderBlogs® & News

Nearby

Air Quality

  Air Quality AQ Index Pollutant
Not available.

Snow Depth

Station Depth Elevation

Earthquake Activity

City Distance Mag. Time & Date
Minimum magnitude displayed is 2.5.

Coastal Water Temperatures

Place Temperature

Stations

Nearby Weather Stations

Station Location Temp. Windchill Dew Point Humidity Wind Precip. Elev Updated Type